createdAt,value
2019-02-25T00:01:14.238Z,4.10
2019-02-25T00:03:43.571Z,4.10
2019-02-25T00:06:12.899Z,4.10
2019-02-25T00:08:42.226Z,4.10
2019-02-25T00:11:11.574Z,4.10
2019-02-25T00:13:40.975Z,4.10
2019-02-25T02:57:28.355Z,3.70
2019-02-25T02:59:57.770Z,3.70
2019-02-25T03:02:27.105Z,3.70
2019-02-25T03:04:56.519Z,3.60
2019-02-25T03:07:25.849Z,3.60
2019-02-25T03:09:55.258Z,3.50
2019-02-25T03:12:24.668Z,3.40
2019-02-25T03:14:53.994Z,3.50
2019-02-25T03:17:23.819Z,3.50
2019-02-25T03:19:53.146Z,3.50
2019-02-25T03:22:22.471Z,3.40
2019-02-25T03:24:51.788Z,3.40
2019-02-25T03:27:21.122Z,3.40
2019-02-25T03:29:50.922Z,3.40
2019-02-25T03:32:20.252Z,3.40
2019-02-25T03:34:49.651Z,3.40
2019-02-25T03:37:19.043Z,3.40
2019-02-25T03:39:48.378Z,3.40
2019-02-25T03:42:17.712Z,3.40
2019-02-25T03:44:47.118Z,3.30
2019-02-25T03:47:16.440Z,3.40
2019-02-25T03:49:45.770Z,3.30
2019-02-25T03:52:15.106Z,3.30
2019-02-25T03:54:44.430Z,3.30
2019-02-25T03:57:13.766Z,3.40
2019-02-25T03:59:43.094Z,3.50
2019-02-25T04:02:12.419Z,3.40
2019-02-25T04:04:42.088Z,3.40
2019-02-25T04:07:11.424Z,3.40
2019-02-25T04:09:40.838Z,3.50
2019-02-25T04:12:10.478Z,3.50
2019-02-25T04:14:39.803Z,3.50
2019-02-25T04:17:09.122Z,3.60
2019-02-25T04:19:38.711Z,3.50
2019-02-25T04:22:08.040Z,3.50
2019-02-25T04:24:37.443Z,3.50
2019-02-25T04:27:06.769Z,3.50
2019-02-25T04:29:36.174Z,3.50
2019-02-25T04:32:05.522Z,3.50
2019-02-25T04:37:03.618Z,3.40
2019-02-25T04:39:32.975Z,3.40
2019-02-25T04:42:02.490Z,3.50
2019-02-25T04:44:31.891Z,3.50
2019-02-25T04:47:01.228Z,3.50
2019-02-25T04:49:30.555Z,3.50
2019-02-25T04:51:59.923Z,3.50
2019-02-25T04:54:29.564Z,3.50
2019-02-25T04:56:59.194Z,3.50
2019-02-25T04:59:28.537Z,3.50
2019-02-25T05:01:57.950Z,3.50
2019-02-25T05:04:27.293Z,3.50
2019-02-25T05:06:56.799Z,3.40
2019-02-25T05:09:26.350Z,3.40
2019-02-25T05:11:55.683Z,3.50
2019-02-25T05:14:25.229Z,3.40
2019-02-25T05:16:54.627Z,3.40
2019-02-25T05:19:23.943Z,3.40
2019-02-25T05:21:53.263Z,3.30
2019-02-25T05:24:22.590Z,3.30
2019-02-25T05:26:51.923Z,3.30
2019-02-25T05:29:21.323Z,3.30
2019-02-25T05:31:50.659Z,3.30
2019-02-25T05:34:19.992Z,3.30
2019-02-25T05:36:49.383Z,3.30
2019-02-25T05:39:18.703Z,3.30
2019-02-25T05:41:48.035Z,3.30
2019-02-25T05:44:17.372Z,3.30
2019-02-25T05:46:46.757Z,3.30
2019-02-25T05:49:16.394Z,3.30
2019-02-25T05:51:45.721Z,3.40
2019-02-25T05:54:15.195Z,3.40
2019-02-25T05:56:44.526Z,3.40
2019-02-25T05:59:13.855Z,3.30
2019-02-25T06:01:43.186Z,3.40
2019-02-25T06:04:12.520Z,3.30
2019-02-25T06:06:41.854Z,3.30
2019-02-25T06:09:11.197Z,3.30
2019-02-25T06:11:40.594Z,3.30
2019-02-25T06:14:09.929Z,3.30
2019-02-25T06:16:39.260Z,3.30
2019-02-25T06:19:08.819Z,3.30
2019-02-25T06:21:38.143Z,3.30
2019-02-25T06:24:07.479Z,3.40
2019-02-25T06:26:38.582Z,3.40
2019-02-25T06:29:07.878Z,3.40
2019-02-25T06:31:37.207Z,3.40
2019-02-25T06:34:06.542Z,3.30
2019-02-25T06:36:36.034Z,3.30
2019-02-25T06:39:07.225Z,3.30
2019-02-25T06:41:36.619Z,3.30
2019-02-25T06:44:05.967Z,3.30
2019-02-25T06:46:35.312Z,3.30
2019-02-25T06:49:04.679Z,3.30
2019-02-25T06:51:34.027Z,3.30
2019-02-25T06:54:03.366Z,3.30
2019-02-25T06:56:32.738Z,3.30
2019-02-25T06:59:02.067Z,3.40
2019-02-25T07:01:31.671Z,3.40
2019-02-25T07:04:28.790Z,3.40
2019-02-25T07:07:13.890Z,3.50
2019-02-25T07:10:00.975Z,3.50
2019-02-25T07:12:43.086Z,3.50
2019-02-25T07:15:25.431Z,3.50
2019-02-25T07:18:22.920Z,3.60
2019-02-25T07:21:11.263Z,3.60
2019-02-25T07:24:02.380Z,3.70
2019-02-25T07:26:49.862Z,3.70
2019-02-25T07:29:30.022Z,3.80
2019-02-25T07:32:33.336Z,3.70
2019-02-25T07:35:20.116Z,3.70
2019-02-25T07:38:11.290Z,3.70
2019-02-25T07:40:55.691Z,3.80
2019-02-25T07:44:01.978Z,3.90
2019-02-25T07:46:43.474Z,4.00
2019-02-25T07:49:18.272Z,4.10
2019-02-25T07:52:18.544Z,4.10
2019-02-25T07:55:13.418Z,4.20
2019-02-25T07:58:02.111Z,4.30
2019-02-25T08:00:39.030Z,4.40
2019-02-25T08:03:25.790Z,4.50
2019-02-25T08:06:19.839Z,4.60
2019-02-25T08:09:23.161Z,4.80
2019-02-25T08:12:05.927Z,4.90
2019-02-25T08:15:00.105Z,5.00
2019-02-25T08:17:48.802Z,5.10
2019-02-25T08:20:52.124Z,5.20
2019-02-25T08:23:40.383Z,5.20
2019-02-25T08:26:28.095Z,5.20
2019-02-25T08:29:21.833Z,5.20
2019-02-25T08:32:00.583Z,5.20
2019-02-25T08:34:54.818Z,5.20
2019-02-25T08:37:48.616Z,5.30
2019-02-25T08:41:13.895Z,5.50
2019-02-25T08:44:02.158Z,5.60
2019-02-25T08:46:43.033Z,5.40
2019-02-25T08:51:47.759Z,5.50
2019-02-25T08:56:45.819Z,5.50
2019-02-25T08:59:15.158Z,5.50
2019-02-25T09:01:44.938Z,5.50
2019-02-25T09:04:14.270Z,5.60
2019-02-25T09:06:43.598Z,5.60
2019-02-25T09:09:13.106Z,5.70
2019-02-25T09:11:42.939Z,5.80
2019-02-25T09:14:12.516Z,5.60
2019-02-25T09:16:41.867Z,5.60
2019-02-25T09:19:11.554Z,5.70
2019-02-25T09:31:36.135Z,6.50
2019-02-25T09:34:05.481Z,6.60
2019-02-25T09:36:34.878Z,6.50
2019-02-25T09:39:05.720Z,6.60
2019-02-25T09:41:35.169Z,6.70
2019-02-25T09:44:04.506Z,6.80
2019-02-25T09:46:33.840Z,6.90
2019-02-25T09:49:03.257Z,7.10
2019-02-25T09:51:32.591Z,7.10
2019-02-25T09:54:01.938Z,7.10
2019-02-25T09:56:31.342Z,7.40
2019-02-25T09:59:00.686Z,7.60
2019-02-25T10:01:30.045Z,7.40
2019-02-25T10:03:59.450Z,7.50
2019-02-25T10:06:28.790Z,7.70
2019-02-25T10:08:58.119Z,7.80
2019-02-25T10:11:27.463Z,7.90
2019-02-25T10:13:56.795Z,7.90
2019-02-25T10:16:26.122Z,7.80
2019-02-25T10:18:55.450Z,7.90
2019-02-25T10:21:24.773Z,8.00
2019-02-25T10:23:54.170Z,8.10
2019-02-25T10:26:24.349Z,7.90
2019-02-25T10:28:53.668Z,8.10
2019-02-25T10:31:23.022Z,8.20
2019-02-25T10:33:52.349Z,8.10
2019-02-25T10:36:21.678Z,8.20
2019-02-25T10:38:51.031Z,8.30
2019-02-25T10:41:21.665Z,8.30
2019-02-25T10:43:51.391Z,8.30
2019-02-25T10:46:20.764Z,8.40
2019-02-25T10:48:54.261Z,8.50
2019-02-25T10:51:21.143Z,8.50
2019-02-25T10:53:51.619Z,8.70
2019-02-25T10:58:53.878Z,8.80
2019-02-25T11:01:24.571Z,8.80
2019-02-25T11:03:54.343Z,9.10
2019-02-25T11:19:00.951Z,8.60
2019-02-25T11:21:30.378Z,8.50
2019-02-25T11:23:59.702Z,8.50
2019-02-25T11:26:30.610Z,8.30
2019-02-25T11:29:00.111Z,8.50
2019-02-25T11:31:29.441Z,8.40
2019-02-25T11:34:00.702Z,8.50
2019-02-25T11:36:29.844Z,8.50
2019-02-25T11:39:00.700Z,8.60
2019-02-25T11:41:31.863Z,8.80
2019-02-25T11:44:01.279Z,9.00
2019-02-25T11:46:30.604Z,9.30
2019-02-25T11:49:00.003Z,9.10
2019-02-25T11:51:29.343Z,9.50
2019-02-25T11:53:59.522Z,9.70
2019-02-25T11:56:31.125Z,9.70
2019-02-25T11:59:00.211Z,9.70
2019-02-25T12:01:29.551Z,10.00
2019-02-25T12:03:58.883Z,10.00
2019-02-25T12:06:29.239Z,10.20
2019-02-25T12:08:58.587Z,10.10
2019-02-25T12:11:27.930Z,10.10
2019-02-25T12:13:57.561Z,10.30
2019-02-25T12:16:26.905Z,10.60
2019-02-25T12:18:56.308Z,10.90
2019-02-25T12:21:25.646Z,11.30
2019-02-25T12:23:54.997Z,11.10
2019-02-25T12:26:24.345Z,10.90
2019-02-25T12:28:53.696Z,11.00
2019-02-25T12:31:23.207Z,10.90
2019-02-25T12:33:52.579Z,11.20
2019-02-25T12:36:21.966Z,11.40
2019-02-25T12:38:51.292Z,11.70
2019-02-25T12:41:20.654Z,11.50
2019-02-25T12:43:50.026Z,11.40
2019-02-25T12:46:19.367Z,11.50
2019-02-25T12:48:48.699Z,11.70
2019-02-25T12:51:18.449Z,11.50
2019-02-25T12:53:47.858Z,11.50
2019-02-25T12:56:17.258Z,11.40
2019-02-25T12:58:46.630Z,11.10
2019-02-25T13:01:15.963Z,11.30
2019-02-25T13:03:45.294Z,11.90
2019-02-25T13:06:14.643Z,11.60
2019-02-25T13:08:43.971Z,11.50
2019-02-25T13:11:13.390Z,11.50
2019-02-25T13:13:42.726Z,11.90
2019-02-25T13:16:12.065Z,12.10
2019-02-25T13:18:41.479Z,11.60
2019-02-25T13:21:10.867Z,11.80
2019-02-25T13:23:40.211Z,11.30
2019-02-25T13:26:09.900Z,11.10
2019-02-25T13:28:39.311Z,11.10
2019-02-25T13:31:10.176Z,11.30
2019-02-25T13:33:39.835Z,11.30
2019-02-25T13:36:12.823Z,11.00
2019-02-25T13:38:42.209Z,10.60
2019-02-25T13:41:11.607Z,10.40
2019-02-25T13:43:41.023Z,10.50
2019-02-25T13:46:10.718Z,10.40
2019-02-25T13:48:41.046Z,10.40
2019-02-25T13:51:10.475Z,11.00
2019-02-25T13:53:39.893Z,11.30
2019-02-25T13:56:09.315Z,11.10
2019-02-25T13:58:38.722Z,11.00
2019-02-25T14:03:37.004Z,10.60
2019-02-25T14:06:06.425Z,10.30
2019-02-25T14:08:35.856Z,10.10
2019-02-25T14:11:05.321Z,9.80
2019-02-25T14:13:34.778Z,9.60
2019-02-25T14:16:04.695Z,9.60
2019-02-25T14:18:34.103Z,9.90
2019-02-25T14:21:04.114Z,10.00
2019-02-25T14:23:33.534Z,10.00
2019-02-25T14:26:03.182Z,10.10
2019-02-25T14:28:32.609Z,10.10
2019-02-25T14:31:02.037Z,10.10
2019-02-25T14:33:35.651Z,10.00
2019-02-25T14:36:02.612Z,9.80
2019-02-25T14:38:32.667Z,9.60
2019-02-25T14:41:04.512Z,9.20
2019-02-25T14:43:36.683Z,9.10
2019-02-25T14:46:07.753Z,9.00
2019-02-25T14:48:37.185Z,8.90
2019-02-25T14:51:08.741Z,8.70
2019-02-25T14:53:37.839Z,8.60
2019-02-25T14:56:07.250Z,8.50
2019-02-25T14:58:37.845Z,8.50
2019-02-25T15:01:07.837Z,8.50
2019-02-25T15:03:37.250Z,8.50
2019-02-25T15:06:07.142Z,8.30
2019-02-25T15:08:36.550Z,8.30
2019-02-25T15:11:07.119Z,8.20
2019-02-25T15:13:39.008Z,8.20
2019-02-25T15:16:08.788Z,8.00
2019-02-25T15:18:38.200Z,7.90
2019-02-25T15:21:09.084Z,7.80
2019-02-25T15:23:39.020Z,7.80
2019-02-25T15:26:08.434Z,7.70
2019-02-25T15:28:37.857Z,7.60
2019-02-25T15:31:09.456Z,7.50
2019-02-25T15:33:40.329Z,7.40
2019-02-25T15:36:11.458Z,7.40
2019-02-25T15:38:41.354Z,7.30
2019-02-25T15:41:12.381Z,7.20
2019-02-25T15:43:41.780Z,7.10
2019-02-25T15:46:12.497Z,7.00
2019-02-25T15:48:43.552Z,7.00
2019-02-25T15:51:13.262Z,7.00
2019-02-25T15:53:46.290Z,6.90
2019-02-25T15:56:14.554Z,6.80
2019-02-25T15:58:43.980Z,6.80
2019-02-25T16:01:15.359Z,6.70
2019-02-25T16:03:45.022Z,6.70
2019-02-25T16:06:14.828Z,6.50
2019-02-25T16:08:49.895Z,6.50
2019-02-25T16:11:18.810Z,6.40
2019-02-25T16:13:48.536Z,6.40
2019-02-25T16:16:19.927Z,6.20
2019-02-25T16:18:49.390Z,6.20
2019-02-25T16:21:18.764Z,6.20
2019-02-25T16:23:48.178Z,6.10
2019-02-25T16:26:18.392Z,6.10
2019-02-25T16:28:50.355Z,6.10
2019-02-25T16:31:19.699Z,6.00
2019-02-25T16:33:49.609Z,6.00
2019-02-25T16:36:21.782Z,6.00
2019-02-25T16:38:53.247Z,5.90
2019-02-25T16:41:27.420Z,5.90
2019-02-25T16:43:53.515Z,5.90
2019-02-25T16:46:23.931Z,5.90
2019-02-25T16:48:55.138Z,5.70
2019-02-25T16:51:25.914Z,5.70
2019-02-25T16:53:55.810Z,5.70
2019-02-25T16:56:25.619Z,5.60
2019-02-25T16:58:56.738Z,5.50
2019-02-25T17:01:27.938Z,5.60
2019-02-25T17:03:57.313Z,5.60
2019-02-25T17:06:28.104Z,5.50
2019-02-25T17:08:57.849Z,5.50
2019-02-25T17:11:27.802Z,5.60
2019-02-25T17:13:57.780Z,5.60
2019-02-25T17:16:28.256Z,5.60
2019-02-25T17:19:00.652Z,5.70
2019-02-25T17:21:28.762Z,5.60
2019-02-25T17:24:00.536Z,5.70
2019-02-25T17:26:29.923Z,5.70
2019-02-25T17:28:59.515Z,5.70
2019-02-25T17:31:30.575Z,5.60
2019-02-25T17:34:00.411Z,5.70
2019-02-25T17:36:29.828Z,5.70
2019-02-25T17:38:59.218Z,5.60
2019-02-25T17:41:28.618Z,5.60
2019-02-25T17:43:59.212Z,5.60
2019-02-25T17:46:32.584Z,5.60
2019-02-25T17:49:00.130Z,5.70
2019-02-25T17:51:29.527Z,5.60
2019-02-25T17:53:59.250Z,5.70
2019-02-25T17:56:28.967Z,5.70
2019-02-25T17:59:00.959Z,5.70
2019-02-25T18:01:30.130Z,5.80
2019-02-25T18:04:02.029Z,5.80
2019-02-25T18:06:31.944Z,5.80
2019-02-25T18:09:02.260Z,5.80
2019-02-25T18:11:31.664Z,5.90
2019-02-25T18:14:01.467Z,5.80
2019-02-25T18:16:32.863Z,5.90
2019-02-25T18:19:01.934Z,5.90
2019-02-25T18:21:31.351Z,5.90
2019-02-25T18:24:00.746Z,6.00
2019-02-25T18:26:30.954Z,6.00
2019-02-25T18:29:00.858Z,6.00
2019-02-25T18:31:30.860Z,6.00
2019-02-25T18:34:00.179Z,6.00
2019-02-25T18:36:31.170Z,6.00
2019-02-25T18:39:00.564Z,6.00
2019-02-25T18:41:33.616Z,5.90
2019-02-25T18:44:00.975Z,5.90
2019-02-25T18:46:30.378Z,5.90
2019-02-25T18:48:59.974Z,5.90
2019-02-25T18:51:30.559Z,6.00
2019-02-25T18:54:02.044Z,6.00
2019-02-25T18:56:31.665Z,6.00
2019-02-25T18:59:12.248Z,6.10
2019-02-25T19:01:32.777Z,6.10
2019-02-25T19:04:02.196Z,6.10
2019-02-25T19:06:31.659Z,6.10
2019-02-25T19:09:01.071Z,6.10
2019-02-25T19:11:30.511Z,6.10
2019-02-25T19:14:03.194Z,6.20
2019-02-25T19:16:31.003Z,6.20
2019-02-25T19:19:03.625Z,6.20
2019-02-25T19:21:33.637Z,6.20
2019-02-25T19:24:03.578Z,6.20
2019-02-25T19:26:33.719Z,6.20
2019-02-25T19:29:03.136Z,6.20
2019-02-25T19:31:32.550Z,6.20
2019-02-25T19:34:02.150Z,6.30
2019-02-25T19:36:32.602Z,6.30
2019-02-25T19:39:05.197Z,6.20
2019-02-25T19:41:33.874Z,6.30
2019-02-25T19:44:04.136Z,6.30
2019-02-25T19:46:34.430Z,6.30
2019-02-25T19:49:04.245Z,6.30
2019-02-25T19:51:33.633Z,6.30
2019-02-25T19:54:05.175Z,6.30
2019-02-25T19:56:34.056Z,6.30
2019-02-25T19:59:05.481Z,6.30
2019-02-25T20:01:34.496Z,6.10
2019-02-25T20:04:06.430Z,6.10
2019-02-25T20:06:34.939Z,6.10
2019-02-25T20:09:07.573Z,6.00
2019-02-25T20:11:37.096Z,6.00
2019-02-25T20:14:06.522Z,6.00
2019-02-25T20:16:35.919Z,6.00
2019-02-25T20:19:06.841Z,6.00
2019-02-25T20:21:36.219Z,6.00
2019-02-25T20:24:07.725Z,5.90
2019-02-25T20:26:36.579Z,5.90
2019-02-25T20:29:06.807Z,5.80
2019-02-25T20:31:37.078Z,5.80
2019-02-25T20:34:06.482Z,5.80
2019-02-25T20:36:36.383Z,5.70
2019-02-25T20:39:06.941Z,5.70
2019-02-25T20:41:36.277Z,5.60
2019-02-25T20:44:05.598Z,5.50
2019-02-25T20:46:35.406Z,5.50
2019-02-25T20:49:05.163Z,5.40
2019-02-25T20:51:36.190Z,5.30
2019-02-25T20:54:06.002Z,5.30
2019-02-25T20:56:35.404Z,5.20
2019-02-25T20:59:06.125Z,5.20
2019-02-25T21:01:39.522Z,5.20
2019-02-25T21:04:08.778Z,5.10
2019-02-25T21:06:39.712Z,5.10
2019-02-25T21:09:11.074Z,5.10
2019-02-25T21:11:40.562Z,5.00
2019-02-25T21:14:09.886Z,5.00
2019-02-25T21:16:39.368Z,5.00
2019-02-25T21:19:10.793Z,5.00
2019-02-25T21:21:40.227Z,5.00
2019-02-25T21:24:11.251Z,4.90
2019-02-25T21:26:41.034Z,4.90
2019-02-25T21:29:10.383Z,4.90
2019-02-25T21:31:42.630Z,4.80
2019-02-25T21:34:15.171Z,4.90
2019-02-25T21:36:41.777Z,4.90
2019-02-25T21:39:14.560Z,4.80
2019-02-25T21:41:45.712Z,4.80
2019-02-25T21:44:18.828Z,4.80
2019-02-25T21:46:49.388Z,4.70
2019-02-25T21:49:16.959Z,4.60
2019-02-25T21:51:48.039Z,4.60
2019-02-25T21:54:17.338Z,4.60
2019-02-25T21:56:46.665Z,4.50
2019-02-25T21:59:17.589Z,4.50
2019-02-25T22:01:47.010Z,4.50
2019-02-25T22:04:18.062Z,4.40
2019-02-25T22:06:50.958Z,4.40
2019-02-25T22:09:35.395Z,4.50
2019-02-25T22:11:50.818Z,4.50
2019-02-25T22:14:21.760Z,4.40
2019-02-25T22:16:52.638Z,4.40
2019-02-25T22:19:22.423Z,4.40
2019-02-25T22:21:55.652Z,4.40
2019-02-25T22:24:27.130Z,4.40
2019-02-25T22:26:55.863Z,4.30
2019-02-25T22:29:25.118Z,4.30
2019-02-25T22:31:55.641Z,4.30
2019-02-25T22:34:25.410Z,4.30
2019-02-25T22:36:55.906Z,4.30
2019-02-25T22:39:27.383Z,4.30
2019-02-25T22:41:56.673Z,4.20
2019-02-25T22:44:26.966Z,4.30
2019-02-25T22:46:57.152Z,4.30
2019-02-25T22:49:28.316Z,4.30
2019-02-25T22:51:58.160Z,4.30
2019-02-25T22:54:29.259Z,4.30
2019-02-25T22:56:58.679Z,4.20
2019-02-25T22:59:28.108Z,4.30
2019-02-25T23:01:57.527Z,4.30
2019-02-25T23:06:56.260Z,4.20
2019-02-25T23:09:25.868Z,4.20
2019-02-25T23:11:55.771Z,4.30
2019-02-25T23:14:25.736Z,4.20
2019-02-25T23:16:55.163Z,4.20
2019-02-25T23:19:24.831Z,4.20
2019-02-25T23:21:54.254Z,4.20
2019-02-25T23:24:26.018Z,4.10
2019-02-25T23:26:55.199Z,4.10
2019-02-25T23:29:28.469Z,4.20
2019-02-25T23:31:56.887Z,4.10
2019-02-25T23:34:26.283Z,4.20
2019-02-25T23:36:56.252Z,4.10
2019-02-25T23:39:25.635Z,4.10
2019-02-25T23:41:55.062Z,4.10
2019-02-25T23:44:24.699Z,4.10
2019-02-25T23:46:57.903Z,4.20
2019-02-25T23:49:27.524Z,4.20
2019-02-25T23:51:56.218Z,4.20
2019-02-25T23:54:27.916Z,4.10
2019-02-25T23:56:57.925Z,4.20
2019-02-25T23:59:27.787Z,4.20
